Latest Coastal Weather Observations for Swanbourne

IDW60701

Issued at 11:23 am WST Sunday 25 June 2017 (issued every 10 minutes, with the page automatically refreshed every 10 minutes)

About coastal observations | Map of coastal stations | Coastal observations for WA | Marine services | Other Formats
Station Details ID: 009215 Name: SWANBOURNE Lat: -31.96 Lon: 115.76 Height: 40.96 m
Data from the previous 72 hours. | See also: Recent months at Swanbourne
Date/Time
WST
Temp
°C
Wind Pressure Rain since
9am
mm
Weather Cloud Vis
km
Sea
Height
m
Swell
Dir  Spd
kts
Gust
kts
hPa Trend Height
m
Period
s
Dir
25/11:00am 14.5 ESE 6 10 - - 0.0 - - - - - - -
25/10:30am 13.7 E 5 9 - - 0.0 - - - - - - -
25/10:00am 12.7 ESE 7 11 - - 0.0 - - - - - - -
25/09:30am 12.1 E 7 10 - - 0.0 - - - - - - -
25/09:00am 11.2 ESE 6 10 - - 0.0 - - - - - - -
25/08:30am 10.2 ESE 6 10 - - 0.0 - - - - - - -
25/08:00am 9.4 ESE 6 9 - - 0.0 - - - - - - -
25/07:30am 8.3 ESE 7 10 - - 0.0 - - - - - - -
25/07:00am 8.2 E 6 8 - - 0.0 - - - - - - -
25/06:30am 8.2 ESE 6 8 - - 0.0 - - - - - - -
25/06:00am 8.1 ESE 6 8 - - 0.0 - - - - - - -
25/05:30am 8.4 ESE 6 8 - - 0.0 - - - - - - -
25/05:00am 8.2 E 6 8 - - 0.0 - - - - - - -
25/04:30am 8.6 ESE 5 7 - - 0.0 - - - - - - -
25/04:00am 8.8 SE 4 7 - - 0.0 - - - - - - -
25/03:30am 8.9 SE 5 6 - - 0.0 - - - - - - -
25/03:00am 9.2 SE 4 5 - - 0.0 - - - - - - -
25/02:30am 9.6 ESE 5 8 - - 0.0 - - - - - - -
25/02:00am 9.7 SE 6 9 - - 0.0 - - - - - - -
25/01:30am 9.9 SE 5 8 - - 0.0 - - - - - - -
25/01:00am 9.6 SE 5 7 - - 0.0 - - - - - - -
25/12:30am 9.7 SE 5 7 - - 0.0 - - - - - - -
25/12:00am 10.1 SE 5 8 - - 0.0 - - - - - - -
 
Date/Time
WST
Temp
°C
Wind Pressure Rain since
9am
mm
Weather Cloud Vis
km
Sea
Height
m
Swell
Dir  Spd
kts
Gust
kts
hPa Trend Height
m
Period
s
Dir
24/11:30pm 10.6 SE 6 10 - - 0.0 - - - - - - -
24/11:00pm 10.7 SE 5 8 - - 0.0 - - - - - - -
24/10:30pm 10.8 SE 5 8 - - 0.0 - - - - - - -
24/10:00pm 11.1 SE 4 6 - - 0.0 - - - - - - -
24/09:30pm 11.4 SE 5 8 - - 0.0 - - - - - - -
24/09:00pm 11.6 SE 4 6 - - 0.0 - - - - - - -
24/08:30pm 11.8 SE 4 6 - - 0.0 - - - - - - -
24/08:00pm 12.1 SSE 5 7 - - 0.0 - - - - - - -
24/07:30pm 12.7 SE 4 6 - - 0.0 - - - - - - -
24/07:00pm 13.5 SE 6 9 - - 0.0 - - - - - - -
24/06:30pm 13.9 SE 5 8 - - 0.0 - - - - - - -
24/06:00pm 14.3 SE 4 7 - - 0.0 - - - - - - -
24/05:30pm 14.7 E 4 8 - - 0.0 - - - - - - -
24/05:00pm 15.5 ESE 7 11 - - 0.0 - - - - - - -
24/04:30pm 16.4 ESE 7 12 - - 0.0 - - - - - - -
24/04:00pm 16.8 SE 7 13 - - 0.0 - - - - - - -
24/03:30pm 17.0 ESE 8 15 - - 0.0 - - - - - - -
24/03:00pm 17.2 ESE 9 16 - - 0.0 - - - - - - -
24/02:30pm 17.2 ESE 8 12 - - 0.0 - - - - - - -
24/02:00pm 17.2 E 7 12 - - 0.0 - - - - - - -
24/01:30pm 17.4 SE 8 12 - - 0.0 - - - - - - -
24/01:00pm 16.8 ESE 8 12 - - 0.0 - - - - - - -
24/12:30pm 16.9 ESE 8 13 - - 0.0 - - - - - - -
24/12:00pm 16.3 ESE 9 13 - - 0.0 - - - - - - -
24/11:30am 16.3 ESE 8 14 - - 0.0 - - - - - - -
24/11:00am 15.7 E 10 15 - - 0.0 - - - - - - -
24/10:30am 15.4 E 9 15 - - 0.0 - - - - - - -
24/10:00am 14.4 ESE 8 14 - - 0.0 - - - - - - -
24/09:30am 13.6 ESE 7 10 - - 0.0 - - - - - - -
24/09:00am 12.7 SE 6 13 - - 0.0 - - - - - - -
24/08:30am 11.6 SE 7 10 - - 0.0 - - - - - - -
24/08:00am 10.9 SE 7 10 - - 0.0 - - - - - - -
24/07:30am 10.9 ESE 7 9 - - 0.0 - - - - - - -
24/07:00am 10.9 ESE 5 9 - - 0.0 - - - - - - -
24/06:30am 10.9 S 2 4 - - 0.0 - - - - - - -
24/06:00am 11.6 ESE 5 8 - - 0.0 - - - - - - -
24/05:30am 11.9 SE 4 9 - - 0.0 - - - - - - -
24/05:00am 12.0 ESE 6 14 - - 0.0 - - - - - - -
24/04:30am 12.2 ESE 10 18 - - 0.0 - - - - - - -
24/04:00am 12.2 ESE 7 14 - - 0.0 - - - - - - -
24/03:30am 12.4 ESE 9 15 - - 0.0 - - - - - - -
24/03:00am 12.5 ESE 9 13 - - 0.0 - - - - - - -
24/02:30am 12.8 ESE 9 16 - - 0.0 - - - - - - -
24/02:00am 12.6 ESE 9 14 - - 0.0 - - - - - - -
24/01:30am 12.6 E 11 16 - - 0.0 - - - - - - -
24/01:00am 12.8 ESE 10 17 - - 0.0 - - - - - - -
24/12:30am 13.1 ESE 11 17 - - 0.0 - - - - - - -
24/12:00am 13.5 ESE 11 16 - - 0.0 - - - - - - -
 
Date/Time
WST
Temp
°C
Wind Pressure Rain since
9am
mm
Weather Cloud Vis
km
Sea
Height
m
Swell
Dir  Spd
kts
Gust
kts
hPa Trend Height
m
Period
s
Dir
23/11:30pm 14.0 ESE 11 18 - - 0.0 - - - - - - -
23/11:00pm 14.5 ESE 10 17 - - 0.0 - - - - - - -
23/10:30pm 14.7 ESE 10 19 - - 0.0 - - - - - - -
23/10:00pm 14.8 ESE 11 16 - - 0.0 - - - - - - -
23/09:30pm 14.7 ESE 10 18 - - 0.0 - - - - - - -
23/09:00pm 14.6 SE 7 13 - - 0.0 - - - - - - -
23/08:30pm 14.6 ESE 8 15 - - 0.0 - - - - - - -
23/08:00pm 14.9 SE 9 14 - - 0.0 - - - - - - -
23/07:30pm 15.3 ESE 9 17 - - 0.0 - - - - - - -
23/07:00pm 15.7 ESE 8 13 - - 0.0 - - - - - - -
23/06:30pm 15.8 ESE 5 9 - - 0.0 - - - - - - -
23/06:00pm 16.3 ESE 9 14 - - 0.0 - - - - - - -
23/05:30pm 16.6 ESE 10 19 - - 0.0 - - - - - - -
23/05:00pm 16.9 ESE 9 15 - - 0.0 - - - - - - -
23/04:30pm 17.9 ESE 8 14 - - 0.0 - - - - - - -
23/04:00pm 18.3 ESE 8 12 - - 0.0 - - - - - - -
23/03:30pm 18.0 ESE 12 19 - - 0.0 - - - - - - -
23/03:00pm 18.1 ESE 9 14 - - 0.0 - - - - - - -
23/02:30pm 17.6 ESE 10 18 - - 0.0 - - - - - - -
23/02:00pm 18.0 ESE 11 17 - - 0.0 - - - - - - -
23/01:30pm 17.6 ESE 10 16 - - 0.0 - - - - - - -
23/01:00pm 16.8 ESE 12 20 - - 0.0 - - - - - - -
23/12:30pm 16.8 ESE 9 15 - - 0.0 - - - - - - -
23/12:00pm 16.7 ESE 10 17 - - 0.0 - - - - - - -
23/11:30am 16.0 ESE 13 20 - - 0.0 - - - - - - -
23/11:00am 15.6 ESE 10 18 - - 0.0 - - - - - - -
23/10:30am 15.3 ESE 9 16 - - 0.0 - - - - - - -
23/10:00am 14.7 ESE 9 15 - - 0.0 - - - - - - -
23/09:30am 14.4 SE 10 16 - - 0.0 - - - - - - -
23/09:00am 14.3 SE 8 13 - - 3.4 - - - - - - -
23/08:30am 14.2 SE 7 13 - - 3.4 - - - - - - -
23/08:00am 13.8 ESE 7 13 - - 3.4 - - - - - - -
23/07:30am 13.5 ESE 7 10 - - 3.4 - - - - - - -
23/07:00am 13.4 ESE 8 14 - - 3.4 - - - - - - -
23/06:30am 13.4 SE 9 15 - - 3.4 - - - - - - -
23/06:00am 13.3 SE 9 15 - - 3.4 - - - - - - -
23/05:30am 13.3 SE 8 13 - - 3.4 - - - - - - -
23/05:00am 13.2 SE 9 14 - - 3.4 - - - - - - -
23/04:30am 13.1 SE 8 13 - - 3.4 - - - - - - -
23/04:00am 13.1 SE 6 10 - - 3.4 - - - - - - -
23/03:30am 13.3 SE 9 16 - - 2.6 - - - - - - -
23/03:00am 13.2 SSE 9 14 - - 2.6 - - - - - - -
23/02:30am 13.2 SE 8 13 - - 2.6 - - - - - - -
23/02:00am 13.1 SE 6 10 - - 2.6 - - - - - - -
23/01:30am 13.0 SE 7 13 - - 2.0 - - - - - - -
23/01:00am 13.4 SSE 11 19 - - 0.8 - - - - - - -
23/12:30am 13.4 SSE 12 20 - - 0.8 - - - - - - -
23/12:00am 13.1 SSE 13 21 - - 0.8 Rain - - - - - -
 
Date/Time
WST
Temp
°C
Wind Pressure Rain since
9am
mm
Weather Cloud Vis
km
Sea
Height
m
Swell
Dir  Spd
kts
Gust
kts
hPa Trend Height
m
Period
s
Dir
22/11:30pm 13.0 SSE 12 21 - - 0.6 - - - - - - -
22/11:00pm 13.3 SSE 13 21 - - 0.2 - - - - - - -
22/10:30pm 13.6 SSE 13 23 - - 0.2 - - - - - - -
22/10:06pm 14.0 SSE 15 26 - - 0.2 - - - - - - -
22/10:00pm 14.0 SSE 13 23 - - 0.2 - - - - - - -
22/09:30pm 14.3 S 13 22 - - 0.2 - - - - - - -
22/09:00pm 14.6 S 15 25 - - 0.2 - - - - - - -
22/08:30pm 14.7 S 18 30 - - 0.2 - - - - - - -
22/08:00pm 14.8 S 19 30 - - 0.2 - - - - - - -
22/07:30pm 14.8 S 16 28 - - 0.2 - - - - - - -
22/07:13pm 14.6 S 17 28 - - 0.2 - - - - - - -
22/07:00pm 14.3 S 16 26 - - 0.2 - - - - - - -
22/06:43pm 14.4 S 16 27 - - 0.0 - - - - - - -
22/06:30pm 14.5 S 16 24 - - 0.0 - - - - - - -
22/06:15pm 14.9 S 16 30 - - 0.0 - - - - - - -
22/06:00pm 15.1 S 16 25 - - 0.0 - - - - - - -
22/05:44pm 15.3 S 17 27 - - 0.0 - - - - - - -
22/05:30pm 15.5 S 18 25 - - 0.0 - - - - - - -
22/05:03pm 15.9 SSW 15 25 - - 0.0 - - - - - - -
22/05:00pm 15.8 SSW 15 23 - - 0.0 - - - - - - -
22/04:30pm 15.9 SSW 15 22 - - 0.0 - - - - - - -
22/04:00pm 16.1 SSW 15 22 - - 0.0 - - - - - - -
22/03:30pm 15.8 SSW 14 21 - - 0.0 - - - - - - -
22/03:00pm 15.7 SSW 14 21 - - 0.0 - - - - - - -
22/02:30pm 15.8 SSW 13 19 - - 0.0 - - - - - - -
22/02:00pm 16.3 SSW 14 20 - - 0.0 - - - - - - -
22/01:30pm 16.2 SW 16 23 - - 0.0 - - - - - - -
22/01:00pm 16.2 SW 16 22 - - 0.0 - - - - - - -
22/12:30pm 16.3 SW 15 23 - - 0.0 - - - - - - -
22/12:00pm 16.4 SW 16 22 - - 0.0 - - - - - - -
22/11:30am 16.2 WSW 16 22 - - 0.0 - - - - - - -

Other Formats:

Comma delimited format used in spreadsheet applications
http://www.bom.gov.au/fwo/IDW60701/IDW60701.94614.axf

JavaScript Object Notation format (JSON) in row-major order
http://www.bom.gov.au/fwo/IDW60701/IDW60701.94614.json